Terminal Aerodrome Forecast
Issued by NWS

Home | Current Version | Previous Version | Text Only | Print | Product List | Glossary On
Versions: 1 2 3 4 5 6 7 8 9 10 11 12 13 14 15 16 17 18 19 20 21 22 23
000
FTUS43 KDVN 160500
TAFCID
TAF
KCID 160520Z 1606/1706 14014KT P6SM BKN120
     FM161400 16022G30KT P6SM BKN120
     FM161700 19026G36KT P6SM SCT050 BKN120
     FM170100 17013G23KT P6SM SCT040 BKN060
     FM170400 23013G23KT P6SM VCSH SCT030 BKN060=

USA.gov is the U.S. government's official web portal to all federal, state and local government web resources and services.